Fri Langesund — ZDKQ8 — position and weather

sailwx.info

Track history (hours):
 
Tides and Currents Weather Stations Pressure Air Temp Water Temp Dewpoint Dewpoint Depression Visibility Wind Speed Wind Dir Waves Ship Positions

Fri Langesund

Last reported at 2014-Sep-20 20:33 UTC. Time now 2014-Sep-22 16:19 UTC.
Position N 53°44' W 006°16'.

Length 90 m; draft 5.8 m.

Type: Cargo ship. MMSI: 236111779.

Date/timePositionNaut miles runAvg speedWind from/ knotsBaromVisibWave heightAir tempDewpointWater temp
2014-Sep-20 20:33N 53°44' W 006°16'3 2.4
2014-Sep-20 19:23N 53°44' W 006°11'0 0.0
2014-Sep-20 18:08N 53°44' W 006°11'0 0.0
2014-Sep-20 17:32N 53°44' W 006°11'0 0.0
2014-Sep-20 16:05N 53°44' W 006°11'0 0.1
2014-Sep-20 15:33N 53°44' W 006°11'6 5.8
2014-Sep-20 14:33N 53°40' W 006°04'265 5.4
2014-Sep-18 13:11N 50°23' W 001°16'37 9.4
2014-Sep-18 09:12N 50°30' W 000°18'8 9.4
2014-Sep-18 08:18N 50°32' W 000°05'7 9.2
2014-Sep-18 07:32N 50°33' E 000°06'9 8.9
2014-Sep-18 06:33N 50°36' E 000°19'8 8.5
2014-Sep-18 05:34N 50°38' E 000°32'8 8.2
2014-Sep-18 04:33N 50°43' E 000°43'9 8.6
2014-Sep-18 03:33N 50°47' E 000°54'11 8.8
2014-Sep-18 02:17N 50°54' E 001°08'7 9.6
2014-Sep-18 01:32N 50°59' E 001°17'1010.1
2014-Sep-18 00:33N 51°05' E 001°29'10 9.6
2014-Sep-17 23:33N 51°13' E 001°38'9 8.7
2014-Sep-17 22:33N 51°21' E 001°43'8 8.1
2014-Sep-17 21:33N 51°29' E 001°44'8 8.1
2014-Sep-17 20:34N 51°37' E 001°45'8 8.3
2014-Sep-17 19:34N 51°45' E 001°44'8 8.1
2014-Sep-17 18:33N 51°52' E 001°36'9 8.6
2014-Sep-17 17:34N 51°56' E 001°24'8 7.6
2014-Sep-17 16:33N 51°60' E 001°13'3 3.0
2014-Sep-17 15:33N 52°02' E 001°10'0 0.0
2014-Sep-17 14:33N 52°02' E 001°10'0 0.0
2014-Sep-17 13:33N 52°02' E 001°10'0 0.0
2014-Sep-17 12:33N 52°02' E 001°10'0 0.0
2014-Sep-17 11:33N 52°02' E 001°10'0 0.0
2014-Sep-17 10:27N 52°02' E 001°10'0 0.0
2014-Sep-17 09:33N 52°02' E 001°10'0 0.0
2014-Sep-17 08:33N 52°02' E 001°10'0 0.0
2014-Sep-17 07:33N 52°02' E 001°10'0 0.0
2014-Sep-17 06:33N 52°02' E 001°10'0 0.0
2014-Sep-17 05:30N 52°02' E 001°10'0 0.0
2014-Sep-17 04:30N 52°02' E 001°10'0 0.0
2014-Sep-17 03:33N 52°02' E 001°10'0 0.0
2014-Sep-17 02:33N 52°02' E 001°10'0 0.0
2014-Sep-17 01:33N 52°02' E 001°10'0 0.0
2014-Sep-17 00:33N 52°02' E 001°10'0 0.0
2014-Sep-16 23:33N 52°02' E 001°10'0 0.0
2014-Sep-16 22:33N 52°02' E 001°10'0 0.0
2014-Sep-16 21:33N 52°02' E 001°10'0 0.0
2014-Sep-16 20:33N 52°02' E 001°10'0 0.0
2014-Sep-16 19:33N 52°02' E 001°10'0 0.0
2014-Sep-16 18:33N 52°02' E 001°10'0 0.0
2014-Sep-16 17:33N 52°02' E 001°10'0 0.0
2014-Sep-16 16:33N 52°02' E 001°10'0 0.0
2014-Sep-16 15:33N 52°02' E 001°10'0 0.0
2014-Sep-16 14:33N 52°02' E 001°10'0 0.0
2014-Sep-16 13:33N 52°02' E 001°10'0 0.0
2014-Sep-16 12:33N 52°02' E 001°10'0 0.0
2014-Sep-16 11:33N 52°02' E 001°10'0 0.0
2014-Sep-16 10:33N 52°02' E 001°10'0 0.0
2014-Sep-16 09:33N 52°02' E 001°10'0 0.0
2014-Sep-16 08:33N 52°02' E 001°10'0 0.0
2014-Sep-16 07:33N 52°02' E 001°10'0 0.0
2014-Sep-16 06:33N 52°02' E 001°10'0 0.0
2014-Sep-16 05:33N 52°02' E 001°10'0 0.0
2014-Sep-16 04:33N 52°02' E 001°10'0 0.0
2014-Sep-16 03:33N 52°02' E 001°10'0 0.0
2014-Sep-16 02:27N 52°02' E 001°10'0 0.0
2014-Sep-16 01:33N 52°02' E 001°10'0 0.0
2014-Sep-16 00:33N 52°02' E 001°10'0 0.0
2014-Sep-15 23:33N 52°02' E 001°10'0 0.0
2014-Sep-15 22:33N 52°02' E 001°10'0 0.0
2014-Sep-15 21:33N 52°02' E 001°10'5 4.8
2014-Sep-15 20:34N 51°59' E 001°16'8 7.8
2014-Sep-15 19:33N 51°56' E 001°28'6 6.0
2014-Sep-15 18:33N 51°52' E 001°35'4 3.8
2014-Sep-15 17:33N 51°52' E 001°41'10 9.5
2014-Sep-15 16:33N 51°51' E 001°57'10 9.9
2014-Sep-15 15:33N 51°53' E 002°12'1010.2
2014-Sep-15 14:33N 51°50' E 002°28'1110.1
2014-Sep-15 13:30N 51°47' E 002°44'1010.8
2014-Sep-15 12:33N 51°48' E 003°00'1211.5
2014-Sep-15 11:32N 51°52' E 003°18'7 6.5
2014-Sep-15 10:32N 51°54' E 003°28'0 0.0
2014-Sep-15 09:29N 51°54' E 003°28'0 0.1
2014-Sep-15 08:32N 51°54' E 003°28'0 0.0
2014-Sep-15 07:23N 51°54' E 003°28'0 0.0
2014-Sep-15 06:26N 51°54' E 003°28'0 0.0
2014-Sep-15 05:14N 51°54' E 003°28'0 0.0
2014-Sep-15 04:23N 51°54' E 003°28'0 0.0
2014-Sep-14 18:20N 51°54' E 003°28'0 0.0
2014-Sep-14 07:32N 51°54' E 003°28'0 0.0
2014-Sep-14 06:17N 51°54' E 003°28'0 0.1
2014-Sep-14 03:14N 51°54' E 003°28'0 0.0
2014-Sep-13 20:05N 51°54' E 003°28'0 0.0
2014-Sep-13 19:32N 51°54' E 003°28'0 0.0
2014-Sep-13 06:26N 51°54' E 003°28'0 0.0
2014-Sep-13 05:29N 51°54' E 003°28'0 0.0
2014-Sep-13 04:32N 51°54' E 003°28'0 0.0
2014-Sep-13 03:23N 51°54' E 003°28'0 0.2
2014-Sep-13 02:32N 51°54' E 003°28'0 0.0
2014-Sep-13 01:32N 51°54' E 003°28'0 0.0
2014-Sep-13 00:32N 51°54' E 003°28'0 0.0
2014-Sep-12 23:08N 51°54' E 003°28'0 0.0
2014-Sep-12 22:26N 51°54' E 003°28'0 0.0
2014-Sep-12 20:14N 51°54' E 003°28'0 0.0
2014-Sep-12 19:32N 51°54' E 003°28'0 0.1
2014-Sep-12 17:08N 51°54' E 003°28'0 0.0
2014-Sep-12 13:20N 51°54' E 003°28'0 0.0
2014-Sep-12 12:32N 51°54' E 003°28'1 0.2
2014-Sep-12 08:31N 51°55' E 003°27'5 5.3
2014-Sep-12 07:33N 51°53' E 003°19'3310.3
2014-Sep-12 04:23N 51°41' E 002°31'1012.1
2014-Sep-12 03:33N 51°33' E 002°20'1212.0
2014-Sep-12 02:33N 51°23' E 002°10'1211.8
2014-Sep-12 01:31N 51°13' E 001°60'1212.2
2014-Sep-12 00:33N 51°05' E 001°45'1211.7
2014-Sep-11 23:33N 50°57' E 001°32'43 8.4
2014-Sep-11 18:29N 50°28' E 000°42'8 7.8
2014-Sep-11 17:31N 50°25' E 000°31'7 7.8
2014-Sep-11 16:33N 50°24' E 000°20'57 8.9
2014-Sep-11 10:09N 50°07' W 001°06'  
Track history (hours):
 
Tides and Currents Weather Stations Pressure Air Temp Water Temp Dewpoint Dewpoint Depression Visibility Wind Speed Wind Dir Waves Ship Positions

Fri Langesund

Last reported at 2014-Sep-20 20:33 UTC. Time now 2014-Sep-22 16:19 UTC.
Position N 53°44' W 006°16'.

Length 90 m; draft 5.8 m.

Type: Cargo ship. MMSI: 236111779.

Date/timePositionNaut miles runAvg speedWind from/ knotsBaromVisibWave heightAir tempDewpointWater temp
2014-Sep-20 20:33N 53°44' W 006°16'3 2.4
2014-Sep-20 19:23N 53°44' W 006°11'0 0.0
2014-Sep-20 18:08N 53°44' W 006°11'0 0.0
2014-Sep-20 17:32N 53°44' W 006°11'0 0.0
2014-Sep-20 16:05N 53°44' W 006°11'0 0.1
2014-Sep-20 15:33N 53°44' W 006°11'6 5.8
2014-Sep-20 14:33N 53°40' W 006°04'265 5.4
2014-Sep-18 13:11N 50°23' W 001°16'37 9.4
2014-Sep-18 09:12N 50°30' W 000°18'8 9.4
2014-Sep-18 08:18N 50°32' W 000°05'7 9.2
2014-Sep-18 07:32N 50°33' E 000°06'9 8.9
2014-Sep-18 06:33N 50°36' E 000°19'8 8.5
2014-Sep-18 05:34N 50°38' E 000°32'8 8.2
2014-Sep-18 04:33N 50°43' E 000°43'9 8.6
2014-Sep-18 03:33N 50°47' E 000°54'11 8.8
2014-Sep-18 02:17N 50°54' E 001°08'7 9.6
2014-Sep-18 01:32N 50°59' E 001°17'1010.1
2014-Sep-18 00:33N 51°05' E 001°29'10 9.6
2014-Sep-17 23:33N 51°13' E 001°38'9 8.7
2014-Sep-17 22:33N 51°21' E 001°43'8 8.1
2014-Sep-17 21:33N 51°29' E 001°44'8 8.1
2014-Sep-17 20:34N 51°37' E 001°45'8 8.3
2014-Sep-17 19:34N 51°45' E 001°44'8 8.1
2014-Sep-17 18:33N 51°52' E 001°36'9 8.6
2014-Sep-17 17:34N 51°56' E 001°24'8 7.6
2014-Sep-17 16:33N 51°60' E 001°13'3 3.0
2014-Sep-17 15:33N 52°02' E 001°10'0 0.0
2014-Sep-17 14:33N 52°02' E 001°10'0 0.0
2014-Sep-17 13:33N 52°02' E 001°10'0 0.0
2014-Sep-17 12:33N 52°02' E 001°10'0 0.0
2014-Sep-17 11:33N 52°02' E 001°10'0 0.0
2014-Sep-17 10:27N 52°02' E 001°10'0 0.0
2014-Sep-17 09:33N 52°02' E 001°10'0 0.0
2014-Sep-17 08:33N 52°02' E 001°10'0 0.0
2014-Sep-17 07:33N 52°02' E 001°10'0 0.0
2014-Sep-17 06:33N 52°02' E 001°10'0 0.0
2014-Sep-17 05:30N 52°02' E 001°10'0 0.0
2014-Sep-17 04:30N 52°02' E 001°10'0 0.0
2014-Sep-17 03:33N 52°02' E 001°10'0 0.0
2014-Sep-17 02:33N 52°02' E 001°10'0 0.0
2014-Sep-17 01:33N 52°02' E 001°10'0 0.0
2014-Sep-17 00:33N 52°02' E 001°10'0 0.0
2014-Sep-16 23:33N 52°02' E 001°10'0 0.0
2014-Sep-16 22:33N 52°02' E 001°10'0 0.0
2014-Sep-16 21:33N 52°02' E 001°10'0 0.0
2014-Sep-16 20:33N 52°02' E 001°10'0 0.0
2014-Sep-16 19:33N 52°02' E 001°10'0 0.0
2014-Sep-16 18:33N 52°02' E 001°10'0 0.0
2014-Sep-16 17:33N 52°02' E 001°10'0 0.0
2014-Sep-16 16:33N 52°02' E 001°10'0 0.0
2014-Sep-16 15:33N 52°02' E 001°10'0 0.0
2014-Sep-16 14:33N 52°02' E 001°10'0 0.0
2014-Sep-16 13:33N 52°02' E 001°10'0 0.0
2014-Sep-16 12:33N 52°02' E 001°10'0 0.0
2014-Sep-16 11:33N 52°02' E 001°10'0 0.0
2014-Sep-16 10:33N 52°02' E 001°10'0 0.0
2014-Sep-16 09:33N 52°02' E 001°10'0 0.0
2014-Sep-16 08:33N 52°02' E 001°10'0 0.0
2014-Sep-16 07:33N 52°02' E 001°10'0 0.0
2014-Sep-16 06:33N 52°02' E 001°10'0 0.0
2014-Sep-16 05:33N 52°02' E 001°10'0 0.0
2014-Sep-16 04:33N 52°02' E 001°10'0 0.0
2014-Sep-16 03:33N 52°02' E 001°10'0 0.0
2014-Sep-16 02:27N 52°02' E 001°10'0 0.0
2014-Sep-16 01:33N 52°02' E 001°10'0 0.0
2014-Sep-16 00:33N 52°02' E 001°10'0 0.0
2014-Sep-15 23:33N 52°02' E 001°10'0 0.0
2014-Sep-15 22:33N 52°02' E 001°10'0 0.0
2014-Sep-15 21:33N 52°02' E 001°10'5 4.8
2014-Sep-15 20:34N 51°59' E 001°16'8 7.8
2014-Sep-15 19:33N 51°56' E 001°28'6 6.0
2014-Sep-15 18:33N 51°52' E 001°35'4 3.8
2014-Sep-15 17:33N 51°52' E 001°41'10 9.5
2014-Sep-15 16:33N 51°51' E 001°57'10 9.9
2014-Sep-15 15:33N 51°53' E 002°12'1010.2
2014-Sep-15 14:33N 51°50' E 002°28'1110.1
2014-Sep-15 13:30N 51°47' E 002°44'1010.8
2014-Sep-15 12:33N 51°48' E 003°00'1211.5
2014-Sep-15 11:32N 51°52' E 003°18'7 6.5
2014-Sep-15 10:32N 51°54' E 003°28'0 0.0
2014-Sep-15 09:29N 51°54' E 003°28'0 0.1
2014-Sep-15 08:32N 51°54' E 003°28'0 0.0
2014-Sep-15 07:23N 51°54' E 003°28'0 0.0
2014-Sep-15 06:26N 51°54' E 003°28'0 0.0
2014-Sep-15 05:14N 51°54' E 003°28'0 0.0
2014-Sep-15 04:23N 51°54' E 003°28'0 0.0
2014-Sep-14 18:20N 51°54' E 003°28'0 0.0
2014-Sep-14 07:32N 51°54' E 003°28'0 0.0
2014-Sep-14 06:17N 51°54' E 003°28'0 0.1
2014-Sep-14 03:14N 51°54' E 003°28'0 0.0
2014-Sep-13 20:05N 51°54' E 003°28'0 0.0
2014-Sep-13 19:32N 51°54' E 003°28'0 0.0
2014-Sep-13 06:26N 51°54' E 003°28'0 0.0
2014-Sep-13 05:29N 51°54' E 003°28'0 0.0
2014-Sep-13 04:32N 51°54' E 003°28'0 0.0
2014-Sep-13 03:23N 51°54' E 003°28'0 0.2
2014-Sep-13 02:32N 51°54' E 003°28'0 0.0
2014-Sep-13 01:32N 51°54' E 003°28'0 0.0
2014-Sep-13 00:32N 51°54' E 003°28'0 0.0
2014-Sep-12 23:08N 51°54' E 003°28'0 0.0
2014-Sep-12 22:26N 51°54' E 003°28'0 0.0
2014-Sep-12 20:14N 51°54' E 003°28'0 0.0
2014-Sep-12 19:32N 51°54' E 003°28'0 0.1
2014-Sep-12 17:08N 51°54' E 003°28'0 0.0
2014-Sep-12 13:20N 51°54' E 003°28'0 0.0
2014-Sep-12 12:32N 51°54' E 003°28'1 0.2
2014-Sep-12 08:31N 51°55' E 003°27'5 5.3
2014-Sep-12 07:33N 51°53' E 003°19'3310.3
2014-Sep-12 04:23N 51°41' E 002°31'1012.1
2014-Sep-12 03:33N 51°33' E 002°20'1212.0
2014-Sep-12 02:33N 51°23' E 002°10'1211.8
2014-Sep-12 01:31N 51°13' E 001°60'1212.2
2014-Sep-12 00:33N 51°05' E 001°45'1211.7
2014-Sep-11 23:33N 50°57' E 001°32'43 8.4
2014-Sep-11 18:29N 50°28' E 000°42'8 7.8
2014-Sep-11 17:31N 50°25' E 000°31'7 7.8
2014-Sep-11 16:33N 50°24' E 000°20'57 8.9
2014-Sep-11 10:09N 50°07' W 001°06'  

Dump ship's entire track history